<?xml version='1.0' encoding='UTF-8'?>
<gpx version="1.1" creator="https://www.komoot.de" xmlns="http://www.topografix.com/GPX/1/1" xmlns:xsi="http://www.w3.org/2001/XMLSchema-instance" xsi:schemaLocation="http://www.topografix.com/GPX/1/1 http://www.topografix.com/GPX/1/1/gpx.xsd">
  <metadata>
    <name>Olfen Steverauen</name>
    <author>
      <link href="https://www.komoot.de">
        <text>komoot</text>
        <type>text/html</type>
      </link>
    </author>
  </metadata>
  <trk>
    <name>Olfen Steverauen</name>
    <trkseg>
      <trkpt lat="51.703289" lon="7.385108">
        <ele>50.852356</ele>
        <time>2023-01-17T10:14:50.578Z</time>
      </trkpt>
      <trkpt lat="51.702978" lon="7.384773">
        <ele>50.852356</ele>
        <time>2023-01-17T10:15:28.430Z</time>
      </trkpt>
      <trkpt lat="51.702717" lon="7.384399">
        <ele>50.852356</ele>
        <time>2023-01-17T10:16:03.851Z</time>
      </trkpt>
      <trkpt lat="51.702121" lon="7.383548">
        <ele>51.079283</ele>
        <time>2023-01-17T10:17:24.877Z</time>
      </trkpt>
      <trkpt lat="51.702400" lon="7.382672">
        <ele>51.302869</ele>
        <time>2023-01-17T10:18:26.823Z</time>
      </trkpt>
      <trkpt lat="51.702742" lon="7.381441">
        <ele>51.529769</ele>
        <time>2023-01-17T10:19:51.055Z</time>
      </trkpt>
      <trkpt lat="51.703788" lon="7.382340">
        <ele>51.612116</ele>
        <time>2023-01-17T10:21:50.338Z</time>
      </trkpt>
      <trkpt lat="51.704095" lon="7.382599">
        <ele>51.636114</ele>
        <time>2023-01-17T10:22:25.074Z</time>
      </trkpt>
      <trkpt lat="51.704115" lon="7.382531">
        <ele>51.624567</ele>
        <time>2023-01-17T10:22:29.812Z</time>
      </trkpt>
      <trkpt lat="51.704094" lon="7.382468">
        <ele>51.613594</ele>
        <time>2023-01-17T10:22:34.272Z</time>
      </trkpt>
      <trkpt lat="51.703693" lon="7.382058">
        <ele>51.496085</ele>
        <time>2023-01-17T10:23:22.093Z</time>
      </trkpt>
      <trkpt lat="51.703683" lon="7.382013">
        <ele>51.488752</ele>
        <time>2023-01-17T10:23:25.093Z</time>
      </trkpt>
      <trkpt lat="51.703700" lon="7.381996">
        <ele>51.483801</ele>
        <time>2023-01-17T10:23:27.155Z</time>
      </trkpt>
      <trkpt lat="51.703985" lon="7.382195">
        <ele>51.406933</ele>
        <time>2023-01-17T10:23:58.565Z</time>
      </trkpt>
      <trkpt lat="51.704068" lon="7.382182">
        <ele>51.386291</ele>
        <time>2023-01-17T10:24:06.977Z</time>
      </trkpt>
      <trkpt lat="51.704356" lon="7.382415">
        <ele>51.306544</ele>
        <time>2023-01-17T10:24:39.371Z</time>
      </trkpt>
      <trkpt lat="51.704859" lon="7.382846">
        <ele>51.201269</ele>
        <time>2023-01-17T10:25:36.493Z</time>
      </trkpt>
      <trkpt lat="51.705270" lon="7.383198">
        <ele>51.248098</ele>
        <time>2023-01-17T10:26:23.147Z</time>
      </trkpt>
      <trkpt lat="51.706076" lon="7.383874">
        <ele>51.339519</ele>
        <time>2023-01-17T10:27:54.263Z</time>
      </trkpt>
      <trkpt lat="51.707282" lon="7.384912">
        <ele>51.752389</ele>
        <time>2023-01-17T10:30:13.249Z</time>
      </trkpt>
      <trkpt lat="51.707735" lon="7.385065">
        <ele>51.920972</ele>
        <time>2023-01-17T10:31:00.064Z</time>
      </trkpt>
      <trkpt lat="51.708024" lon="7.385188">
        <ele>52.029105</ele>
        <time>2023-01-17T10:31:30.277Z</time>
      </trkpt>
      <trkpt lat="51.708145" lon="7.385252">
        <ele>52.062858</ele>
        <time>2023-01-17T10:31:43.138Z</time>
      </trkpt>
      <trkpt lat="51.708327" lon="7.385348">
        <ele>52.113613</ele>
        <time>2023-01-17T10:32:02.462Z</time>
      </trkpt>
      <trkpt lat="51.708625" lon="7.385646">
        <ele>52.206543</ele>
        <time>2023-01-17T10:32:37.849Z</time>
      </trkpt>
      <trkpt lat="51.708933" lon="7.386070">
        <ele>52.313856</ele>
        <time>2023-01-17T10:33:18.762Z</time>
      </trkpt>
      <trkpt lat="51.709136" lon="7.386408">
        <ele>52.391172</ele>
        <time>2023-01-17T10:33:48.256Z</time>
      </trkpt>
      <trkpt lat="51.709586" lon="7.387294">
        <ele>52.522657</ele>
        <time>2023-01-17T10:35:00.067Z</time>
      </trkpt>
      <trkpt lat="51.709610" lon="7.387274">
        <ele>52.524436</ele>
        <time>2023-01-17T10:35:02.812Z</time>
      </trkpt>
      <trkpt lat="51.709685" lon="7.387353">
        <ele>52.530335</ele>
        <time>2023-01-17T10:35:11.843Z</time>
      </trkpt>
      <trkpt lat="51.709947" lon="7.387846">
        <ele>52.556844</ele>
        <time>2023-01-17T10:35:52.184Z</time>
      </trkpt>
      <trkpt lat="51.709989" lon="7.387833">
        <ele>52.559661</ele>
        <time>2023-01-17T10:35:56.511Z</time>
      </trkpt>
      <trkpt lat="51.709630" lon="7.386777">
        <ele>52.608823</ele>
        <time>2023-01-17T10:37:11.637Z</time>
      </trkpt>
      <trkpt lat="51.710005" lon="7.387549">
        <ele>52.180254</ele>
        <time>2023-01-17T10:38:12.953Z</time>
      </trkpt>
      <trkpt lat="51.710408" lon="7.388437">
        <ele>51.429906</ele>
        <time>2023-01-17T10:39:22.512Z</time>
      </trkpt>
      <trkpt lat="51.710611" lon="7.388883">
        <ele>51.052658</ele>
        <time>2023-01-17T10:39:57.640Z</time>
      </trkpt>
      <trkpt lat="51.710771" lon="7.389113">
        <ele>50.816929</ele>
        <time>2023-01-17T10:40:20.195Z</time>
      </trkpt>
      <trkpt lat="51.711028" lon="7.389710">
        <ele>50.172990</ele>
        <time>2023-01-17T10:41:07.145Z</time>
      </trkpt>
      <trkpt lat="51.711260" lon="7.390428">
        <ele>49.366762</ele>
        <time>2023-01-17T10:41:59.556Z</time>
      </trkpt>
      <trkpt lat="51.711266" lon="7.390502">
        <ele>49.292457</ele>
        <time>2023-01-17T10:42:04.390Z</time>
      </trkpt>
      <trkpt lat="51.711239" lon="7.390582">
        <ele>49.201758</ele>
        <time>2023-01-17T10:42:10.283Z</time>
      </trkpt>
      <trkpt lat="51.711095" lon="7.390747">
        <ele>48.917986</ele>
        <time>2023-01-17T10:42:28.491Z</time>
      </trkpt>
      <trkpt lat="51.711080" lon="7.390796">
        <ele>48.863571</ele>
        <time>2023-01-17T10:42:32.220Z</time>
      </trkpt>
      <trkpt lat="51.710906" lon="7.390987">
        <ele>48.525439</ele>
        <time>2023-01-17T10:42:53.949Z</time>
      </trkpt>
      <trkpt lat="51.710809" lon="7.391097">
        <ele>48.334945</ele>
        <time>2023-01-17T10:43:06.038Z</time>
      </trkpt>
      <trkpt lat="51.710704" lon="7.391163">
        <ele>48.153882</ele>
        <time>2023-01-17T10:43:17.735Z</time>
      </trkpt>
      <trkpt lat="51.710607" lon="7.391152">
        <ele>47.997635</ele>
        <time>2023-01-17T10:43:27.690Z</time>
      </trkpt>
      <trkpt lat="51.709986" lon="7.391814">
        <ele>47.710954</ele>
        <time>2023-01-17T10:44:43.018Z</time>
      </trkpt>
      <trkpt lat="51.709811" lon="7.392056">
        <ele>47.694408</ele>
        <time>2023-01-17T10:45:06.354Z</time>
      </trkpt>
      <trkpt lat="51.709161" lon="7.392061">
        <ele>47.647742</ele>
        <time>2023-01-17T10:46:12.130Z</time>
      </trkpt>
      <trkpt lat="51.708968" lon="7.392042">
        <ele>47.633861</ele>
        <time>2023-01-17T10:46:31.924Z</time>
      </trkpt>
      <trkpt lat="51.708678" lon="7.391750">
        <ele>47.776217</ele>
        <time>2023-01-17T10:47:06.874Z</time>
      </trkpt>
      <trkpt lat="51.708584" lon="7.391747">
        <ele>47.844439</ele>
        <time>2023-01-17T10:47:16.436Z</time>
      </trkpt>
      <trkpt lat="51.708582" lon="7.391822">
        <ele>47.878193</ele>
        <time>2023-01-17T10:47:21.179Z</time>
      </trkpt>
      <trkpt lat="51.708584" lon="7.391747">
        <ele>47.911947</ele>
        <time>2023-01-17T10:47:25.991Z</time>
      </trkpt>
      <trkpt lat="51.708580" lon="7.390578">
        <ele>48.437584</ele>
        <time>2023-01-17T10:48:40.519Z</time>
      </trkpt>
      <trkpt lat="51.708531" lon="7.389691">
        <ele>48.837996</ele>
        <time>2023-01-17T10:49:37.208Z</time>
      </trkpt>
      <trkpt lat="51.708476" lon="7.389263">
        <ele>49.093630</ele>
        <time>2023-01-17T10:50:05.134Z</time>
      </trkpt>
      <trkpt lat="51.708267" lon="7.387793">
        <ele>50.153227</ele>
        <time>2023-01-17T10:51:41.880Z</time>
      </trkpt>
      <trkpt lat="51.708110" lon="7.386660">
        <ele>50.968845</ele>
        <time>2023-01-17T10:52:57.846Z</time>
      </trkpt>
      <trkpt lat="51.708069" lon="7.386419">
        <ele>51.094117</ele>
        <time>2023-01-17T10:53:14.123Z</time>
      </trkpt>
      <trkpt lat="51.708034" lon="7.386206">
        <ele>51.204574</ele>
        <time>2023-01-17T10:53:28.492Z</time>
      </trkpt>
      <trkpt lat="51.707902" lon="7.385949">
        <ele>51.371896</ele>
        <time>2023-01-17T10:53:50.071Z</time>
      </trkpt>
      <trkpt lat="51.707826" lon="7.385862">
        <ele>51.447270</ele>
        <time>2023-01-17T10:53:59.697Z</time>
      </trkpt>
      <trkpt lat="51.707890" lon="7.384777">
        <ele>51.993593</ele>
        <time>2023-01-17T10:55:09.119Z</time>
      </trkpt>
      <trkpt lat="51.707922" lon="7.384447">
        <ele>52.161021</ele>
        <time>2023-01-17T10:55:30.263Z</time>
      </trkpt>
      <trkpt lat="51.707944" lon="7.384333">
        <ele>52.220872</ele>
        <time>2023-01-17T10:55:37.751Z</time>
      </trkpt>
      <trkpt lat="51.707882" lon="7.384271">
        <ele>52.279872</ele>
        <time>2023-01-17T10:55:45.112Z</time>
      </trkpt>
      <trkpt lat="51.707703" lon="7.384327">
        <ele>52.422371</ele>
        <time>2023-01-17T10:56:03.629Z</time>
      </trkpt>
      <trkpt lat="51.707635" lon="7.384297">
        <ele>52.402231</ele>
        <time>2023-01-17T10:56:10.762Z</time>
      </trkpt>
      <trkpt lat="51.707567" lon="7.384214">
        <ele>52.377874</ele>
        <time>2023-01-17T10:56:19.282Z</time>
      </trkpt>
      <trkpt lat="51.707447" lon="7.384306">
        <ele>52.339919</ele>
        <time>2023-01-17T10:56:32.644Z</time>
      </trkpt>
      <trkpt lat="51.707315" lon="7.384328">
        <ele>52.302008</ele>
        <time>2023-01-17T10:56:46.066Z</time>
      </trkpt>
      <trkpt lat="51.706454" lon="7.383596">
        <ele>52.023986</ele>
        <time>2023-01-17T10:58:24.456Z</time>
      </trkpt>
      <trkpt lat="51.705754" lon="7.383001">
        <ele>51.849403</ele>
        <time>2023-01-17T10:59:44.574Z</time>
      </trkpt>
      <trkpt lat="51.705650" lon="7.382911">
        <ele>51.831192</ele>
        <time>2023-01-17T10:59:56.476Z</time>
      </trkpt>
      <trkpt lat="51.704356" lon="7.381816">
        <ele>51.659513</ele>
        <time>2023-01-17T11:02:22.853Z</time>
      </trkpt>
      <trkpt lat="51.703152" lon="7.380773">
        <ele>51.875802</ele>
        <time>2023-01-17T11:04:40.879Z</time>
      </trkpt>
      <trkpt lat="51.703322" lon="7.380780">
        <ele>51.902718</ele>
        <time>2023-01-17T11:04:57.914Z</time>
      </trkpt>
      <trkpt lat="51.703370" lon="7.380743">
        <ele>51.911137</ele>
        <time>2023-01-17T11:05:03.348Z</time>
      </trkpt>
      <trkpt lat="51.703507" lon="7.380489">
        <ele>51.899475</ele>
        <time>2023-01-17T11:05:24.203Z</time>
      </trkpt>
      <trkpt lat="51.704072" lon="7.379519">
        <ele>51.815576</ele>
        <time>2023-01-17T11:06:46.925Z</time>
      </trkpt>
      <trkpt lat="51.704394" lon="7.379106">
        <ele>51.773744</ele>
        <time>2023-01-17T11:07:28.343Z</time>
      </trkpt>
      <trkpt lat="51.704435" lon="7.379053">
        <ele>51.768402</ele>
        <time>2023-01-17T11:07:33.624Z</time>
      </trkpt>
      <trkpt lat="51.704952" lon="7.378524">
        <ele>51.741663</ele>
        <time>2023-01-17T11:08:35.021Z</time>
      </trkpt>
      <trkpt lat="51.705345" lon="7.379395">
        <ele>51.760223</ele>
        <time>2023-01-17T11:09:41.915Z</time>
      </trkpt>
      <trkpt lat="51.705292" lon="7.379457">
        <ele>51.762043</ele>
        <time>2023-01-17T11:09:48.537Z</time>
      </trkpt>
      <trkpt lat="51.705345" lon="7.379395">
        <ele>51.763863</ele>
        <time>2023-01-17T11:09:55.134Z</time>
      </trkpt>
      <trkpt lat="51.705644" lon="7.379069">
        <ele>51.773894</ele>
        <time>2023-01-17T11:10:31.496Z</time>
      </trkpt>
      <trkpt lat="51.705492" lon="7.378641">
        <ele>51.782391</ele>
        <time>2023-01-17T11:11:02.256Z</time>
      </trkpt>
      <trkpt lat="51.705504" lon="7.378568">
        <ele>51.783692</ele>
        <time>2023-01-17T11:11:06.926Z</time>
      </trkpt>
      <trkpt lat="51.705913" lon="7.378218">
        <ele>51.775742</ele>
        <time>2023-01-17T11:11:53.211Z</time>
      </trkpt>
      <trkpt lat="51.706170" lon="7.377940">
        <ele>51.770046</ele>
        <time>2023-01-17T11:12:24.224Z</time>
      </trkpt>
      <trkpt lat="51.706202" lon="7.377905">
        <ele>51.769334</ele>
        <time>2023-01-17T11:12:28.125Z</time>
      </trkpt>
      <trkpt lat="51.706222" lon="7.377804">
        <ele>51.768124</ele>
        <time>2023-01-17T11:12:34.910Z</time>
      </trkpt>
      <trkpt lat="51.705756" lon="7.377137">
        <ele>51.756656</ele>
        <time>2023-01-17T11:13:37.455Z</time>
      </trkpt>
      <trkpt lat="51.705700" lon="7.377055">
        <ele>51.755264</ele>
        <time>2023-01-17T11:13:45.034Z</time>
      </trkpt>
      <trkpt lat="51.705328" lon="7.376506">
        <ele>51.813456</ele>
        <time>2023-01-17T11:14:35.694Z</time>
      </trkpt>
      <trkpt lat="51.704779" lon="7.375758">
        <ele>51.980923</ele>
        <time>2023-01-17T11:15:47.882Z</time>
      </trkpt>
      <trkpt lat="51.704749" lon="7.375713">
        <ele>51.990470</ele>
        <time>2023-01-17T11:15:52.179Z</time>
      </trkpt>
      <trkpt lat="51.704779" lon="7.375758">
        <ele>52.000016</ele>
        <time>2023-01-17T11:15:56.348Z</time>
      </trkpt>
      <trkpt lat="51.704694" lon="7.375930">
        <ele>52.031791</ele>
        <time>2023-01-17T11:16:10.076Z</time>
      </trkpt>
      <trkpt lat="51.704246" lon="7.376894">
        <ele>52.359096</ele>
        <time>2023-01-17T11:17:26.855Z</time>
      </trkpt>
      <trkpt lat="51.704093" lon="7.377194">
        <ele>52.656154</ele>
        <time>2023-01-17T11:17:51.925Z</time>
      </trkpt>
      <trkpt lat="51.703973" lon="7.377354">
        <ele>52.848206</ele>
        <time>2023-01-17T11:18:08.145Z</time>
      </trkpt>
      <trkpt lat="51.703879" lon="7.377423">
        <ele>52.975614</ele>
        <time>2023-01-17T11:18:19.092Z</time>
      </trkpt>
      <trkpt lat="51.703225" lon="7.377555">
        <ele>53.788770</ele>
        <time>2023-01-17T11:19:28.406Z</time>
      </trkpt>
      <trkpt lat="51.702813" lon="7.377526">
        <ele>54.297556</ele>
        <time>2023-01-17T11:20:11.646Z</time>
      </trkpt>
      <trkpt lat="51.702465" lon="7.377413">
        <ele>54.599466</ele>
        <time>2023-01-17T11:20:48.652Z</time>
      </trkpt>
      <trkpt lat="51.702163" lon="7.377234">
        <ele>54.840472</ele>
        <time>2023-01-17T11:21:22.420Z</time>
      </trkpt>
      <trkpt lat="51.702131" lon="7.377208">
        <ele>54.867311</ele>
        <time>2023-01-17T11:21:26.291Z</time>
      </trkpt>
      <trkpt lat="51.702163" lon="7.377234">
        <ele>54.894149</ele>
        <time>2023-01-17T11:21:29.991Z</time>
      </trkpt>
      <trkpt lat="51.702096" lon="7.377913">
        <ele>55.213345</ele>
        <time>2023-01-17T11:22:14.276Z</time>
      </trkpt>
      <trkpt lat="51.701969" lon="7.378258">
        <ele>55.399635</ele>
        <time>2023-01-17T11:22:39.541Z</time>
      </trkpt>
      <trkpt lat="51.701964" lon="7.378300">
        <ele>55.419490</ele>
        <time>2023-01-17T11:22:42.195Z</time>
      </trkpt>
      <trkpt lat="51.701905" lon="7.378570">
        <ele>55.552402</ele>
        <time>2023-01-17T11:23:00.331Z</time>
      </trkpt>
      <trkpt lat="51.701792" lon="7.378845">
        <ele>55.705584</ele>
        <time>2023-01-17T11:23:20.834Z</time>
      </trkpt>
      <trkpt lat="51.701556" lon="7.378663">
        <ele>55.567340</ele>
        <time>2023-01-17T11:23:47.114Z</time>
      </trkpt>
      <trkpt lat="51.701424" lon="7.378653">
        <ele>55.465809</ele>
        <time>2023-01-17T11:24:00.430Z</time>
      </trkpt>
      <trkpt lat="51.701301" lon="7.378489">
        <ele>55.343214</ele>
        <time>2023-01-17T11:24:16.543Z</time>
      </trkpt>
      <trkpt lat="51.701308" lon="7.378574">
        <ele>55.302383</ele>
        <time>2023-01-17T11:24:22.120Z</time>
      </trkpt>
      <trkpt lat="51.701352" lon="7.379084">
        <ele>55.057191</ele>
        <time>2023-01-17T11:24:54.647Z</time>
      </trkpt>
      <trkpt lat="51.701435" lon="7.379232">
        <ele>54.962147</ele>
        <time>2023-01-17T11:25:07.558Z</time>
      </trkpt>
      <trkpt lat="51.701805" lon="7.379442">
        <ele>54.660793</ele>
        <time>2023-01-17T11:25:47.319Z</time>
      </trkpt>
      <trkpt lat="51.702019" lon="7.379604">
        <ele>54.479175</ele>
        <time>2023-01-17T11:26:11.257Z</time>
      </trkpt>
      <trkpt lat="51.702362" lon="7.379894">
        <ele>54.086167</ele>
        <time>2023-01-17T11:26:51.161Z</time>
      </trkpt>
      <trkpt lat="51.702571" lon="7.380274">
        <ele>53.710683</ele>
        <time>2023-01-17T11:27:23.680Z</time>
      </trkpt>
      <trkpt lat="51.702539" lon="7.380360">
        <ele>53.636549</ele>
        <time>2023-01-17T11:27:30.147Z</time>
      </trkpt>
      <trkpt lat="51.702393" lon="7.380757">
        <ele>53.295377</ele>
        <time>2023-01-17T11:27:59.984Z</time>
      </trkpt>
      <trkpt lat="51.702393" lon="7.380757">
        <ele>53.295377</ele>
        <time>2023-01-17T11:28:00.167Z</time>
      </trkpt>
      <trkpt lat="51.702289" lon="7.381059">
        <ele>53.040040</ele>
        <time>2023-01-17T11:28:21.590Z</time>
      </trkpt>
      <trkpt lat="51.702742" lon="7.381441">
        <ele>52.430511</ele>
        <time>2023-01-17T11:29:13.855Z</time>
      </trkpt>
      <trkpt lat="51.702400" lon="7.382672">
        <ele>51.725812</ele>
        <time>2023-01-17T11:30:38.640Z</time>
      </trkpt>
      <trkpt lat="51.702121" lon="7.383548">
        <ele>51.272026</ele>
        <time>2023-01-17T11:31:40.928Z</time>
      </trkpt>
      <trkpt lat="51.702717" lon="7.384399">
        <ele>50.872542</ele>
        <time>2023-01-17T11:33:01.398Z</time>
      </trkpt>
      <trkpt lat="51.702978" lon="7.384773">
        <ele>50.872542</ele>
        <time>2023-01-17T11:33:36.633Z</time>
      </trkpt>
      <trkpt lat="51.703289" lon="7.385108">
        <ele>50.872542</ele>
        <time>2023-01-17T11:34:14.297Z</time>
      </trkpt>
      <trkpt lat="51.703245" lon="7.385235">
        <ele>50.872542</ele>
        <time>2023-01-17T11:34:23.423Z</time>
      </trkpt>
    </trkseg>
  </trk>
</gpx>